Time;durP1;ratioP1;P1;durP2;ratioP2;P2;SDS_P1;SDS_P2;PMS_P1;PMS_P2;Temp;Humidity;BMP_temperature;BMP_pressure;BME280_temperature;BME280_humidity;BME280_pressure;Samples;Min_cycle;Max_cycle;Signal;HPM_P1;HPM_P2
2022/01/26 00:07:09;;;;;;;27.32;13.32;;;;;;;2.04;48.43;100563.33;1738245;81;20939;-59
2022/01/26 00:09:38;;;;;;;30.68;14.35;;;;;;;2.06;48.44;100561.47;1737214;81;21174;-67
2022/01/26 00:12:06;;;;;;;27.32;13.62;;;;;;;1.94;48.63;100561.96;1738267;81;21132;-58
2022/01/26 00:14:34;;;;;;;23.40;12.47;;;;;;;1.90;48.69;100557.53;1739034;81;21524;-59
2022/01/26 00:17:01;;;;;;;28.17;11.68;;;;;;;1.88;48.79;100559.86;1736839;82;20975;-58
2022/01/26 00:19:44;;;;;;;20.60;10.55;;;;;;;1.95;48.71;100555.41;1738389;81;21082;-58
2022/01/26 00:21:57;;;;;;;20.72;10.70;;;;;;;1.73;49.01;100555.91;1730483;81;21149;-58
2022/01/26 00:29:41;;;;;;;21.80;10.15;;;;;;;1.91;49.11;100557.05;1738780;81;21026;-58
2022/01/26 00:40:34;;;;;;;21.62;10.38;;;;;;;1.56;49.96;100549.52;1729760;81;21303;-69
2022/01/26 00:43:05;;;;;;;25.05;12.43;;;;;;;1.59;50.24;100562.09;1737700;81;21031;-58
2022/01/26 00:45:33;;;;;;;25.45;11.65;;;;;;;1.62;50.32;100563.97;1737075;81;20983;-56
2022/01/26 00:47:56;;;;;;;24.43;11.57;;;;;;;1.74;50.04;100558.81;1737086;81;22358;-70
2022/01/26 00:50:23;;;;;;;25.45;12.43;;;;;;;1.75;50.04;100551.01;1738452;81;21546;-57
2022/01/26 00:52:53;;;;;;;25.77;11.35;;;;;;;1.93;49.81;100562.44;1738623;81;21133;-57
2022/01/26 00:55:18;;;;;;;26.15;12.00;;;;;;;2.02;49.63;100553.17;1734923;81;21064;-57
2022/01/26 00:57:45;;;;;;;23.73;10.75;;;;;;;1.91;49.91;100546.77;1733032;82;20876;-68
2022/01/26 01:00:24;;;;;;;25.00;12.70;;;;;;;1.82;50.23;100544.90;1732224;82;21135;-57
2022/01/26 01:02:51;;;;;;;27.85;12.53;;;;;;;1.91;50.16;100546.77;1733895;82;20975;-60
2022/01/26 01:05:26;;;;;;;30.05;13.15;;;;;;;1.80;50.32;100541.65;1732999;82;21414;-57
2022/01/26 01:07:49;;;;;;;27.62;13.22;;;;;;;1.81;50.39;100547.12;1731347;82;20900;-70
2022/01/26 01:10:21;;;;;;;16.23;8.28;;;;;;;1.78;50.33;100540.50;1733587;82;20848;-57
2022/01/26 01:12:50;;;;;;;26.95;12.15;;;;;;;1.60;50.94;100535.02;1734013;82;21153;-58
2022/01/26 01:15:18;;;;;;;29.72;13.90;;;;;;;1.58;51.00;100533.49;1732348;82;20932;-59
2022/01/26 01:17:50;;;;;;;27.40;13.65;;;;;;;1.63;50.86;100533.50;1733346;82;21010;-70
2022/01/26 01:20:33;;;;;;;28.12;14.07;;;;;;;1.65;50.75;100534.19;1732549;82;21122;-57
2022/01/26 01:28:15;;;;;;;31.77;15.78;;;;;;;1.44;51.44;100536.67;1731853;82;21746;-67
2022/01/26 01:30:32;;;;;;;31.87;14.20;;;;;;;1.24;51.93;100539.91;1730095;82;21072;-61
2022/01/26 01:33:20;;;;;;;27.73;14.53;;;;;;;1.14;52.40;100534.67;1732601;81;21621;-57
2022/01/26 01:35:22;;;;;;;28.62;15.00;;;;;;;1.19;52.56;100538.98;1726403;82;21004;-57
2022/01/26 01:37:50;;;;;;;33.45;17.07;;;;;;;1.14;52.69;100533.86;1733099;81;21137;-57
2022/01/26 01:40:16;;;;;;;40.50;16.30;;;;;;;1.04;52.81;100537.56;1733373;82;21014;-61
2022/01/26 01:42:43;;;;;;;32.48;15.23;;;;;;;0.94;53.25;100533.57;1732660;81;20931;-57
2022/01/26 01:45:10;;;;;;;36.75;17.00;;;;;;;0.90;53.66;100533.92;1733568;82;21063;-57
2022/01/26 01:47:37;;;;;;;38.20;17.00;;;;;;;1.36;53.39;100530.45;1731639;82;21058;-59
2022/01/26 01:50:10;;;;;;;33.85;16.82;;;;;;;1.27;52.85;100531.17;1733536;82;21162;-60
2022/01/26 01:52:33;;;;;;;35.03;14.78;;;;;;;1.20;53.09;100530.81;1732448;82;20979;-69
2022/01/26 01:55:03;;;;;;;31.00;13.93;;;;;;;1.20;53.20;100526.95;1731182;82;21213;-57
2022/01/26 01:57:28;;;;;;;31.77;14.80;;;;;;;1.19;53.04;100526.14;1714882;83;20971;-61
2022/01/26 01:59:54;;;;;;;33.85;14.95;;;;;;;1.35;52.90;100521.13;1716451;82;21149;-58
2022/01/26 02:02:21;;;;;;;31.37;15.78;;;;;;;1.56;52.16;100520.78;1715606;83;21149;-59
2022/01/26 02:04:48;;;;;;;31.87;15.13;;;;;;;1.67;51.78;100522.05;1714944;83;20943;-71
2022/01/26 02:07:15;;;;;;;34.95;15.83;;;;;;;1.78;51.40;100525.08;1715590;82;21092;-57
2022/01/26 02:09:41;;;;;;;31.45;15.35;;;;;;;1.85;51.14;100523.63;1711118;82;21039;-57
2022/01/26 02:12:13;;;;;;;33.80;16.70;;;;;;;1.89;51.10;100526.78;1717368;81;21108;-57
2022/01/26 02:14:46;;;;;;;33.28;15.28;;;;;;;1.92;50.86;100527.36;1715553;83;21146;-58
2022/01/26 02:52:49;;;;;;;33.85;15.70;;;;;;;1.80;50.94;100531.37;1715447;81;20911;-63
2022/01/26 03:00:33;;;;;;;38.95;18.55;;;;;;;1.94;50.56;100531.11;1731132;82;21077;-58
2022/01/26 03:03:09;;;;;;;42.15;20.12;;;;;;;1.81;50.60;100526.56;1732824;82;20998;-57
2022/01/26 03:05:32;;;;;;;34.50;17.17;;;;;;;1.80;50.71;100526.23;1732103;82;20955;-57
2022/01/26 03:08:01;;;;;;;40.10;19.77;;;;;;;1.96;50.55;100518.94;1728990;81;21121;-68
2022/01/26 03:10:32;;;;;;;42.95;21.12;;;;;;;1.55;51.14;100519.13;1725944;82;20948;-57
2022/01/26 03:12:58;;;;;;;44.77;21.65;;;;;;;1.40;51.83;100516.45;1731822;82;21536;-59
2022/01/26 03:15:34;;;;;;;42.73;18.87;;;;;;;1.25;52.62;100520.18;1732466;81;20983;-57
2022/01/26 03:20:33;;;;;;;44.45;19.85;;;;;;;1.65;52.19;100514.09;1733114;82;20990;-56
2022/01/26 03:29:41;;;;;;;36.00;16.00;;;;;;;1.79;51.61;100512.56;1732936;82;21011;-58
2022/01/26 03:31:40;;;;;;;31.20;15.45;;;;;;;1.94;51.08;100505.41;1687016;82;20952;-68
2022/01/26 03:33:54;;;;;;;;;;;;;;;1.62;51.66;100507.91;1733364;82;21128;-58
2022/01/26 03:36:11;;;;;;;34.88;17.17;;;;;;;1.44;51.89;100510.98;1728325;82;20091;-59
2022/01/26 03:38:47;;;;;;;37.50;17.85;;;;;;;2.06;51.05;100507.00;1732526;82;20960;-57
2022/01/26 03:41:23;;;;;;;43.98;20.97;;;;;;;1.77;51.10;100498.19;1696653;84;22170;-62
2022/01/26 03:43:40;;;;;;;36.03;15.45;;;;;;;2.19;50.56;100501.20;1669445;85;21019;-57
2022/01/26 03:46:07;;;;;;;35.15;16.42;;;;;;;1.69;51.11;100508.59;1670928;85;21230;-57
2022/01/26 03:48:34;;;;;;;32.42;14.40;;;;;;;1.59;51.32;100506.41;1671021;85;20952;-58
2022/01/26 03:51:01;;;;;;;36.28;14.60;;;;;;;1.63;51.44;100509.53;1670167;85;21008;-65
2022/01/26 03:53:28;;;;;;;36.45;15.83;;;;;;;1.63;51.23;100508.25;1670424;85;21027;-65
2022/01/26 03:55:55;;;;;;;30.32;14.00;;;;;;;1.89;50.93;100516.50;1670917;85;21111;-58
2022/01/26 03:58:21;;;;;;;29.50;13.83;;;;;;;1.93;50.67;100508.45;1670936;85;21839;-58
2022/01/26 04:00:47;;;;;;;32.17;14.73;;;;;;;2.03;50.53;100507.23;1685299;80;21431;-59
2022/01/26 04:03:15;;;;;;;36.28;16.67;;;;;;;1.97;50.48;100508.18;1758002;80;21731;-60
2022/01/26 04:05:43;;;;;;;31.50;15.35;;;;;;;2.03;50.32;100511.56;1757006;80;20974;-62
2022/01/26 04:08:18;;;;;;;37.13;17.15;;;;;;;1.98;50.28;100509.84;1758279;80;21465;-59
2022/01/26 04:13:19;;;;;;;36.75;16.70;;;;;;;2.02;50.18;100511.23;1757820;80;21366;-64
2022/01/26 04:15:46;;;;;;;36.88;17.60;;;;;;;1.94;50.31;100513.12;1757041;80;21060;-59
2022/01/26 04:18:18;;;;;;;40.40;17.80;;;;;;;1.84;50.51;100510.91;1757569;80;21537;-59
2022/01/26 04:20:45;;;;;;;34.35;16.75;;;;;;;1.72;50.89;100508.02;1754397;80;21061;-60
2022/01/26 04:25:47;;;;;;;30.57;14.50;;;;;;;1.77;50.96;100505.91;1755776;80;20850;-58
2022/01/26 04:28:20;;;;;;;31.37;14.10;;;;;;;1.44;51.18;100504.56;1758528;80;20998;-59
2022/01/26 04:30:42;;;;;;;28.38;13.05;;;;;;;1.50;51.77;100507.11;1755864;80;21508;-58
2022/01/26 04:33:08;;;;;;;30.60;15.18;;;;;;;1.58;51.52;100500.09;1758224;80;20985;-58
2022/01/26 04:35:40;;;;;;;29.75;12.68;;;;;;;1.73;51.16;100499.38;1757885;80;21140;-60
2022/01/26 04:40:37;;;;;;;25.08;12.95;;;;;;;2.06;50.54;100501.86;1756452;80;21100;-60
2022/01/26 04:43:04;;;;;;;34.65;15.40;;;;;;;1.83;50.64;100498.53;1756479;80;21952;-58
2022/01/26 04:45:28;;;;;;;36.53;18.23;;;;;;;2.06;50.45;100498.00;1757860;80;20974;-60
2022/01/26 04:47:55;;;;;;;39.15;16.73;;;;;;;2.08;50.38;100497.86;1757525;80;21841;-59
2022/01/26 04:50:22;;;;;;;32.13;14.07;;;;;;;1.67;50.94;100489.11;1755438;81;20973;-66
2022/01/26 04:52:48;;;;;;;30.27;15.10;;;;;;;2.47;49.85;100487.42;1758582;80;21076;-58
2022/01/26 04:55:15;;;;;;;28.62;14.28;;;;;;;2.35;49.63;100489.69;1758195;80;20906;-58
2022/01/26 04:57:42;;;;;;;30.88;14.50;;;;;;;2.27;49.69;100490.30;1755937;80;21526;-63
2022/01/26 05:00:09;;;;;;;29.07;13.48;;;;;;;2.12;50.02;100491.09;1758252;80;21115;-68
2022/01/26 05:02:36;;;;;;;30.17;14.25;;;;;;;2.14;49.92;100494.34;1755053;80;21005;-59
2022/01/26 05:05:04;;;;;;;33.13;14.18;;;;;;;2.07;50.06;100497.52;1757385;80;21040;-60
2022/01/26 05:07:30;;;;;;;26.02;12.65;;;;;;;2.06;50.16;100499.28;1758451;80;21006;-58
2022/01/26 05:09:57;;;;;;;27.30;13.40;;;;;;;2.13;49.97;100500.43;1757128;80;21519;-58
2022/01/26 05:12:24;;;;;;;32.53;13.93;;;;;;;2.06;50.16;100501.86;1756047;79;21324;-71
2022/01/26 05:14:51;;;;;;;29.02;13.88;;;;;;;2.15;49.96;100506.72;1725821;81;20980;-59
2022/01/26 05:17:20;;;;;;;29.92;14.23;;;;;;;2.14;50.02;100504.63;1708347;82;21026;-59
2022/01/26 05:19:47;;;;;;;33.75;14.98;;;;;;;2.31;49.81;100508.88;1760206;79;21012;-70
2022/01/26 05:22:14;;;;;;;30.30;14.83;;;;;;;2.22;49.93;100504.02;1764151;79;21511;-60
2022/01/26 05:24:41;;;;;;;59.05;22.60;;;;;;;2.26;49.89;100502.02;1759402;80;21150;-60
2022/01/26 05:27:07;;;;;;;58.28;26.10;;;;;;;2.28;49.84;100499.67;1758152;80;22350;-59
2022/01/26 05:29:34;;;;;;;81.20;33.40;;;;;;;2.32;49.93;100499.77;1755844;80;20950;-73
2022/01/26 05:32:00;;;;;;;51.37;24.57;;;;;;;2.44;49.71;100504.39;1746034;80;20970;-60
2022/01/26 05:34:27;;;;;;;37.40;18.12;;;;;;;2.40;49.76;100504.30;1758214;80;21516;-70
2022/01/26 05:36:54;;;;;;;40.52;18.40;;;;;;;2.40;49.84;100511.55;1758909;79;21631;-61
2022/01/26 05:39:24;;;;;;;36.93;18.23;;;;;;;2.53;49.61;100518.26;1761029;79;21057;-70
2022/01/26 05:41:50;;;;;;;30.68;15.63;;;;;;;2.42;49.53;100513.98;1726743;80;20969;-60
2022/01/26 05:44:17;;;;;;;28.45;15.35;;;;;;;2.41;49.88;100517.02;1758281;80;21511;-59
2022/01/26 05:46:49;;;;;;;30.62;15.23;;;;;;;2.57;49.51;100518.36;1759238;80;21111;-57
2022/01/26 05:49:17;;;;;;;29.48;14.75;;;;;;;2.55;49.28;100522.35;1763065;80;21153;-71
2022/01/26 05:51:46;;;;;;;28.32;15.30;;;;;;;2.41;49.48;100519.59;1759241;80;21063;-59
2022/01/26 05:54:16;;;;;;;28.40;14.70;;;;;;;2.72;48.90;100515.00;1744640;80;21436;-59
2022/01/26 05:56:44;;;;;;;53.08;25.12;;;;;;;2.34;49.27;100518.45;1757503;80;20978;-59
2022/01/26 05:59:11;;;;;;;66.50;29.65;;;;;;;2.30;49.58;100514.97;1764998;79;21750;-61
2022/01/26 06:01:38;;;;;;;71.15;32.45;;;;;;;2.42;49.71;100512.69;1757168;79;20984;-58
2022/01/26 06:04:04;;;;;;;101.20;43.00;;;;;;;2.40;49.71;100516.69;1756518;80;21049;-63
2022/01/26 06:06:31;;;;;;;62.27;25.80;;;;;;;2.40;49.63;100511.55;1755507;81;21012;-69
2022/01/26 06:08:58;;;;;;;71.57;30.45;;;;;;;2.40;50.22;100514.59;1756692;80;21095;-59
2022/01/26 06:11:26;;;;;;;78.30;30.27;;;;;;;2.39;50.25;100504.77;1757255;79;20955;-68
2022/01/26 06:13:54;;;;;;;51.40;24.82;;;;;;;2.29;50.58;100499.20;1763898;79;21065;-59
2022/01/26 06:16:23;;;;;;;77.60;30.77;;;;;;;2.52;50.22;100496.86;1765373;79;21025;-59
2022/01/26 06:18:50;;;;;;;140.65;46.55;;;;;;;2.80;49.57;100485.58;1761191;79;21056;-62
2022/01/26 06:21:17;;;;;;;85.67;33.78;;;;;;;2.59;49.68;100486.42;1763677;79;21123;-68
2022/01/26 06:23:43;;;;;;;67.60;26.40;;;;;;;2.67;49.92;100487.88;1721747;81;21631;-59
2022/01/26 06:26:11;;;;;;;89.40;33.90;;;;;;;2.52;50.43;100484.00;1758754;80;21144;-58
2022/01/26 06:28:37;;;;;;;125.75;51.10;;;;;;;2.84;49.82;100478.78;1760133;80;20841;-71
2022/01/26 06:31:10;;;;;;;72.90;31.60;;;;;;;2.52;50.26;100480.14;1757103;80;21044;-59
2022/01/26 06:33:34;;;;;;;63.13;27.58;;;;;;;2.17;51.08;100479.95;1754870;80;20935;-71
2022/01/26 06:36:01;;;;;;;101.25;36.13;;;;;;;2.50;50.78;100479.46;1745604;81;21005;-59
2022/01/26 06:38:28;;;;;;;83.58;37.88;;;;;;;2.63;50.34;100474.92;1757948;80;21157;-72
2022/01/26 06:40:56;;;;;;;58.40;24.50;;;;;;;2.70;49.74;100468.00;1757344;80;21005;-58
2022/01/26 06:43:24;;;;;;;104.58;45.17;;;;;;;2.50;50.14;100473.03;1758408;80;20887;-59
2022/01/26 06:45:57;;;;;;;58.95;25.75;;;;;;;2.80;49.95;100472.70;1755368;80;21545;-59
2022/01/26 06:50:59;;;;;;;92.05;41.08;;;;;;;3.43;48.32;100462.27;1759509;79;21159;-57
2022/01/26 06:53:28;;;;;;;87.25;34.88;;;;;;;3.58;47.99;100461.75;1764457;79;21035;-71
2022/01/26 06:55:54;;;;;;;53.98;26.05;;;;;;;3.71;47.97;100458.11;1763359;79;21108;-57
2022/01/26 06:58:21;;;;;;;75.87;34.33;;;;;;;3.90;47.45;100460.25;1762916;79;21532;-62
2022/01/26 07:00:47;;;;;;;73.75;34.20;;;;;;;3.70;47.62;100457.30;1758039;79;21555;-59
2022/01/26 07:03:14;;;;;;;53.95;28.07;;;;;;;3.62;47.65;100448.94;1760380;79;21205;-63
2022/01/26 07:05:42;;;;;;;49.18;22.77;;;;;;;3.63;47.46;100440.25;1762230;79;20973;-61
2022/01/26 07:08:08;;;;;;;47.08;23.62;;;;;;;3.59;47.29;100436.31;1765211;79;20930;-58
2022/01/26 07:10:35;;;;;;;36.15;19.42;;;;;;;3.60;47.00;100441.83;1760890;79;21092;-60
2022/01/26 07:13:02;;;;;;;44.42;21.95;;;;;;;3.64;46.69;100439.32;1761664;79;21097;-69
2022/01/26 07:23:48;;;;;;;91.28;35.58;;;;;;;3.22;47.20;100454.14;1758030;79;22023;-61
2022/01/26 07:26:14;;;;;;;68.80;31.25;;;;;;;2.91;47.47;100457.18;1758107;79;21108;-61
2022/01/26 07:28:41;;;;;;;40.17;19.60;;;;;;;2.86;47.71;100459.34;1758546;79;22327;-60
2022/01/26 07:31:08;;;;;;;44.55;22.55;;;;;;;3.02;47.71;100455.00;1762617;79;21345;-61
2022/01/26 07:33:36;;;;;;;35.95;19.82;;;;;;;2.95;47.43;100446.16;1760747;79;20986;-64
2022/01/26 07:36:04;;;;;;;35.83;19.42;;;;;;;3.42;46.85;100453.72;1760879;79;22428;-64
2022/01/26 07:38:31;;;;;;;39.90;20.70;;;;;;;3.60;46.10;100445.70;1763218;79;22154;-71
2022/01/26 07:40:58;;;;;;;36.88;18.15;;;;;;;3.13;46.53;100458.30;1762095;79;22362;-62
2022/01/26 07:43:25;;;;;;;33.90;18.07;;;;;;;3.05;46.57;100459.90;1761043;79;21619;-71
2022/01/26 07:45:51;;;;;;;32.80;17.23;;;;;;;3.19;46.56;100454.40;1760022;79;21078;-60
2022/01/26 07:48:18;;;;;;;25.10;15.10;;;;;;;3.37;46.75;100460.56;1763853;79;21092;-58
2022/01/26 07:50:45;;;;;;;24.77;14.00;;;;;;;3.50;47.66;100456.92;1762622;79;21065;-60
2022/01/26 07:53:15;;;;;;;31.17;16.07;;;;;;;4.27;46.91;100457.45;1762213;79;22907;-58
2022/01/26 07:55:41;;;;;;;28.87;15.53;;;;;;;4.79;45.59;100459.20;1759968;79;21010;-59
2022/01/26 07:58:09;;;;;;;34.45;20.95;;;;;;;5.63;44.01;100450.51;1758712;79;21046;-66
2022/01/26 08:00:36;;;;;;;29.50;16.23;;;;;;;5.94;43.30;100458.27;1758599;80;20934;-64
2022/01/26 08:03:03;;;;;;;28.23;16.35;;;;;;;6.31;43.29;100448.23;1769320;79;21541;-61
2022/01/26 08:05:29;;;;;;;25.72;15.45;;;;;;;6.69;42.50;100446.22;1753530;80;21135;-64
2022/01/26 08:07:56;;;;;;;23.22;13.45;;;;;;;6.92;41.65;100448.61;1757909;80;20973;-59
2022/01/26 08:10:23;;;;;;;24.77;15.25;;;;;;;6.94;41.58;100453.17;1756344;80;20970;-61
2022/01/26 08:12:50;;;;;;;24.82;15.28;;;;;;;7.40;40.51;100439.42;1756344;80;20951;-61
2022/01/26 08:15:16;;;;;;;21.17;13.53;;;;;;;7.75;40.69;100447.92;1755089;80;21014;-59
2022/01/26 08:17:44;;;;;;;25.40;15.58;;;;;;;8.26;39.89;100446.02;1755719;80;21084;-60
2022/01/26 08:20:11;;;;;;;23.22;14.45;;;;;;;8.16;39.14;100438.39;1757515;80;22078;-64
2022/01/26 08:22:39;;;;;;;23.47;15.08;;;;;;;7.94;38.61;100440.32;1730893;81;20907;-61
2022/01/26 08:25:07;;;;;;;23.70;14.33;;;;;;;7.63;38.75;100445.31;1758435;80;21042;-63
2022/01/26 08:27:40;;;;;;;23.35;14.68;;;;;;;7.33;38.67;100443.61;1756117;80;20926;-65
2022/01/26 08:30:09;;;;;;;33.28;17.48;;;;;;;7.15;38.86;100449.37;1756183;80;21168;-60
2022/01/26 08:32:34;;;;;;;26.97;14.13;;;;;;;6.83;39.14;100445.66;1753662;80;21501;-61
2022/01/26 08:35:01;;;;;;;31.23;16.48;;;;;;;6.69;39.28;100443.63;1756588;80;21091;-70
2022/01/26 08:37:27;;;;;;;27.00;14.68;;;;;;;6.47;39.55;100446.23;1757248;80;21566;-72
2022/01/26 08:39:53;;;;;;;26.52;15.13;;;;;;;6.46;39.75;100440.73;1755258;80;21094;-60
2022/01/26 08:42:20;;;;;;;25.00;13.20;;;;;;;6.31;40.18;100446.45;1758287;80;21194;-60
2022/01/26 08:44:46;;;;;;;23.25;13.43;;;;;;;6.26;40.21;100440.12;1748729;80;20993;-60
2022/01/26 08:47:13;;;;;;;24.60;13.55;;;;;;;6.01;40.43;100443.78;1761009;80;21074;-73
2022/01/26 08:49:41;;;;;;;26.33;14.85;;;;;;;5.93;40.98;100437.73;1754574;80;20990;-61
2022/01/26 08:52:08;;;;;;;22.82;13.53;;;;;;;6.01;40.80;100436.02;1757681;80;21132;-60
2022/01/26 08:54:36;;;;;;;26.50;14.55;;;;;;;5.73;41.09;100431.39;1756868;80;21258;-64
2022/01/26 08:57:03;;;;;;;29.52;15.83;;;;;;;5.55;41.12;100430.06;1754721;80;21356;-60
2022/01/26 08:59:30;;;;;;;22.52;13.83;;;;;;;5.58;41.28;100429.78;1755165;80;20978;-75
2022/01/26 09:01:56;;;;;;;24.35;14.28;;;;;;;5.68;41.37;100424.53;1754689;80;21077;-60
2022/01/26 09:04:23;;;;;;;23.65;13.05;;;;;;;5.54;41.54;100424.58;1748948;80;21114;-61
2022/01/26 09:06:52;;;;;;;21.75;14.30;;;;;;;5.50;41.88;100418.07;1753741;80;21128;-60
2022/01/26 09:09:20;;;;;;;22.70;13.13;;;;;;;5.77;41.70;100419.78;1757535;80;20899;-66
2022/01/26 09:11:48;;;;;;;30.27;16.42;;;;;;;5.84;41.22;100428.58;1749806;80;20988;-61
2022/01/26 09:14:22;;;;;;;26.57;15.20;;;;;;;5.93;40.82;100426.90;1752048;81;22019;-64
2022/01/26 09:16:49;;;;;;;26.07;14.50;;;;;;;5.34;42.03;100422.59;1757048;79;21070;-60
2022/01/26 09:19:29;;;;;;;29.15;15.75;;;;;;;5.63;41.29;100428.53;1754841;80;21523;-74
2022/01/26 09:22:01;;;;;;;29.18;15.60;;;;;;;5.40;41.47;100422.48;1761506;79;21016;-60
2022/01/26 09:24:30;;;;;;;31.35;17.25;;;;;;;5.30;41.74;100423.00;1761263;79;21125;-59
2022/01/26 09:26:57;;;;;;;32.50;16.20;;;;;;;4.94;42.45;100426.79;1760514;79;21076;-73
2022/01/26 09:29:24;;;;;;;25.35;13.70;;;;;;;4.89;42.69;100425.12;1723883;81;21091;-72
2022/01/26 09:31:51;;;;;;;29.15;15.63;;;;;;;4.86;42.54;100427.98;1760851;79;21589;-61
2022/01/26 09:34:19;;;;;;;28.73;16.25;;;;;;;4.75;42.49;100422.51;1759452;79;20962;-60
2022/01/26 09:36:45;;;;;;;28.17;15.70;;;;;;;4.56;42.82;100421.28;1755271;79;20999;-58
2022/01/26 09:39:14;;;;;;;30.75;15.90;;;;;;;4.73;42.76;100427.47;1754256;80;20998;-58
2022/01/26 09:41:41;;;;;;;29.35;17.32;;;;;;;4.73;42.85;100422.30;1754618;80;21065;-59
2022/01/26 09:44:09;;;;;;;32.28;17.12;;;;;;;4.75;42.45;100421.70;1751135;80;21236;-64
2022/01/26 09:46:38;;;;;;;28.92;16.10;;;;;;;4.87;42.53;100420.08;1757722;80;21109;-61
2022/01/26 09:49:05;;;;;;;30.40;16.60;;;;;;;4.75;42.51;100417.83;1760339;79;20926;-72
2022/01/26 09:51:39;;;;;;;36.20;18.98;;;;;;;4.79;42.50;100416.58;1754004;80;20985;-59
2022/01/26 09:54:04;;;;;;;31.77;17.12;;;;;;;4.83;42.71;100413.57;1752798;79;21164;-65
2022/01/26 09:56:32;;;;;;;29.65;16.45;;;;;;;4.84;42.73;100411.80;1762641;79;21140;-61
2022/01/26 09:58:58;;;;;;;33.95;18.05;;;;;;;4.81;42.94;100417.23;1754202;80;21251;-68
2022/01/26 10:01:25;;;;;;;30.00;17.42;;;;;;;4.77;43.30;100415.45;1758022;80;20949;-71
2022/01/26 10:03:52;;;;;;;36.17;21.30;;;;;;;4.85;43.12;100408.28;1721918;81;21132;-63
2022/01/26 10:06:27;;;;;;;31.15;17.82;;;;;;;4.93;43.21;100405.80;1756790;79;21007;-59
2022/01/26 10:09:13;;;;;;;46.23;23.95;;;;;;;5.05;42.99;100405.94;1776220;80;21146;-60
2022/01/26 10:17:23;;;;;;;33.65;19.30;;;;;;;5.02;42.41;100404.92;1756230;80;21013;-63
2022/01/26 10:19:37;;;;;;;43.40;21.80;;;;;;;4.89;43.03;100396.70;1760614;79;21147;-61
2022/01/26 10:22:04;;;;;;;60.52;29.40;;;;;;;4.97;43.15;100397.28;1766915;80;21138;-62
2022/01/26 10:24:31;;;;;;;38.40;20.57;;;;;;;5.03;42.96;100396.21;1761076;80;21015;-66
2022/01/26 10:26:59;;;;;;;29.75;17.45;;;;;;;5.33;42.57;100389.12;1759834;80;21047;-60
2022/01/26 10:29:28;;;;;;;28.73;16.77;;;;;;;5.39;42.32;100388.55;1763228;80;21091;-62
2022/01/26 10:31:55;;;;;;;27.05;16.45;;;;;;;5.32;41.92;100384.91;1763782;79;21055;-62
2022/01/26 10:34:23;;;;;;;33.92;19.85;;;;;;;5.40;42.01;100382.41;1737061;80;21149;-75
2022/01/26 10:37:00;;;;;;;31.82;18.05;;;;;;;5.47;42.16;100380.06;1730190;82;21052;-66
2022/01/26 10:39:34;;;;;;;34.03;18.42;;;;;;;5.86;41.57;100381.86;1705519;83;20996;-62
2022/01/26 10:42:05;;;;;;;33.30;19.17;;;;;;;5.78;41.26;100386.97;1708807;82;21066;-59
2022/01/26 10:44:42;;;;;;;27.73;16.80;;;;;;;5.59;41.56;100380.16;1702572;83;21401;-70
2022/01/26 10:47:07;;;;;;;26.55;15.30;;;;;;;5.55;41.65;100378.36;1700651;83;21154;-60
2022/01/26 10:52:38;;;;;;;27.37;14.75;;;;;;;5.48;41.86;100387.66;1700674;83;21639;-67
2022/01/26 10:55:06;;;;;;;25.90;15.10;;;;;;;5.43;41.43;100378.73;1703951;83;21471;-63
2022/01/26 10:57:35;;;;;;;24.77;14.95;;;;;;;5.36;41.59;100375.91;1714507;82;20967;-69
2022/01/26 11:00:06;;;;;;;26.55;15.48;;;;;;;5.51;41.82;100377.02;1723924;81;21067;-67
2022/01/26 11:02:34;;;;;;;22.93;13.40;;;;;;;5.53;41.98;100379.00;1699313;82;21048;-60
2022/01/26 11:05:01;;;;;;;24.95;13.10;;;;;;;5.66;41.91;100381.69;1700491;81;20987;-66
2022/01/26 11:07:36;;;;;;;23.15;15.20;;;;;;;5.80;41.48;100382.47;1756095;80;21557;-63
2022/01/26 11:10:06;;;;;;;28.05;15.32;;;;;;;6.47;40.56;100371.95;1752034;80;21592;-68
2022/01/26 11:12:40;;;;;;;26.23;15.35;;;;;;;6.55;40.30;100372.48;1761395;80;21138;-59
2022/01/26 11:15:13;;;;;;;25.95;16.02;;;;;;;6.66;39.97;100369.63;1738598;81;21041;-59
2022/01/26 11:17:44;;;;;;;27.15;15.95;;;;;;;6.69;39.78;100362.03;1743449;80;20959;-68
2022/01/26 11:20:21;;;;;;;27.87;16.12;;;;;;;6.12;40.37;100366.89;1766285;79;21048;-63
2022/01/26 11:22:56;;;;;;;28.45;16.37;;;;;;;6.32;40.39;100370.89;1759491;79;20994;-66
2022/01/26 11:25:24;;;;;;;31.42;17.05;;;;;;;6.35;40.55;100364.12;1758139;80;22593;-71
2022/01/26 11:27:52;;;;;;;32.95;18.62;;;;;;;6.19;40.54;100362.73;1759152;80;21037;-58
2022/01/26 11:30:29;;;;;;;30.68;17.67;;;;;;;6.30;40.50;100362.00;1760500;80;20960;-61
2022/01/26 11:33:04;;;;;;;34.30;18.40;;;;;;;6.42;40.01;100361.73;1763074;79;21067;-58
2022/01/26 11:35:35;;;;;;;32.88;17.45;;;;;;;6.23;40.06;100353.70;1773815;80;20889;-72
2022/01/26 11:46:27;;;;;;;32.73;18.00;;;;;;;5.93;41.26;100350.58;1761726;80;21063;-72
2022/01/26 11:49:06;;;;;;;34.70;19.37;;;;;;;5.99;41.15;100344.00;1768139;80;21548;-60
2022/01/26 11:51:44;;;;;;;33.42;17.85;;;;;;;6.08;40.98;100343.89;1765372;80;21182;-63
2022/01/26 11:54:21;;;;;;;35.80;18.67;;;;;;;6.07;40.97;100346.16;1759739;80;20956;-66
2022/01/26 11:57:08;;;;;;;36.35;19.45;;;;;;;6.03;40.75;100346.62;1746126;80;21060;-70
2022/01/26 11:59:41;;;;;;;34.85;20.08;;;;;;;5.95;40.99;100348.66;1758989;80;21474;-60
2022/01/26 12:02:19;;;;;;;36.73;19.37;;;;;;;5.97;41.05;100353.19;1764419;79;21118;-63
2022/01/26 12:04:37;;;;;;;38.53;19.48;;;;;;;5.99;41.00;100354.35;1762896;80;21143;-63
2022/01/26 12:07:19;;;;;;;33.55;19.77;;;;;;;6.21;40.53;100353.02;1769611;80;21087;-60
2022/01/26 12:09:40;;;;;;;35.10;18.75;;;;;;;6.16;40.27;100348.80;1768441;80;20925;-63
2022/01/26 12:12:16;;;;;;;33.83;18.48;;;;;;;5.80;40.83;100356.60;1765727;80;20988;-59
2022/01/26 12:14:46;;;;;;;37.50;18.82;;;;;;;5.78;40.69;100354.14;1767942;80;20897;-58
2022/01/26 12:17:29;;;;;;;35.15;18.52;;;;;;;5.73;40.72;100360.74;1766504;80;21221;-57
2022/01/26 12:32:01;;;;;;;32.88;18.17;;;;;;;5.52;41.07;100353.27;1764795;79;21045;-68
2022/01/26 12:36:30;;;;;;;31.33;16.35;;;;;;;5.29;40.62;100356.77;1746252;80;21076;-59
2022/01/26 12:39:01;;;;;;;31.80;16.42;;;;;;;5.06;40.98;100348.61;1749499;80;20981;-67
2022/01/26 12:41:34;;;;;;;28.95;16.37;;;;;;;4.97;41.55;100355.47;1767173;79;21456;-58
2022/01/26 12:44:09;;;;;;;30.02;14.83;;;;;;;4.91;41.44;100350.06;1738723;80;21785;-57
2022/01/26 12:46:37;;;;;;;28.92;15.35;;;;;;;4.79;41.81;100348.15;1733516;80;20978;-58
2022/01/26 12:49:13;;;;;;;24.95;14.07;;;;;;;4.42;42.21;100354.61;1769971;79;21075;-58
2022/01/26 12:51:48;;;;;;;29.87;16.42;;;;;;;4.61;42.31;100356.63;1738346;80;20979;-60
2022/01/26 12:54:15;;;;;;;29.42;15.98;;;;;;;4.47;42.50;100354.98;1737916;80;20939;-65
2022/01/26 12:56:42;;;;;;;31.23;15.28;;;;;;;4.28;42.78;100361.02;1745027;80;21163;-65
2022/01/26 12:59:13;;;;;;;27.37;14.98;;;;;;;4.17;43.05;100362.02;1745641;81;21042;-59
2022/01/26 13:01:40;;;;;;;30.48;15.03;;;;;;;4.35;42.94;100360.80;1762888;80;21553;-57
2022/01/26 13:04:10;;;;;;;25.55;14.03;;;;;;;4.33;43.15;100358.84;1743310;80;21050;-59
2022/01/26 13:06:51;;;;;;;25.90;15.72;;;;;;;4.52;42.38;100347.66;1735453;80;21070;-67
2022/01/26 13:09:26;;;;;;;25.43;13.68;;;;;;;4.42;42.24;100354.61;1725849;82;20940;-71
2022/01/26 13:11:58;;;;;;;32.15;15.68;;;;;;;4.25;42.50;100354.39;1728941;80;21958;-72
2022/01/26 13:14:38;;;;;;;27.87;14.95;;;;;;;4.08;42.79;100362.34;1731985;80;22446;-56
2022/01/26 13:17:21;;;;;;;28.47;15.23;;;;;;;4.00;43.24;100367.39;1724247;82;21466;-68
2022/01/26 13:20:17;;;;;;;25.43;14.15;;;;;;;4.07;43.34;100360.73;1723241;80;21493;-58
2022/01/26 13:30:42;;;;;;;33.35;16.52;;;;;;;3.93;43.45;100358.56;1725284;80;21423;-65
2022/01/26 13:38:24;;;;;;;33.50;17.15;;;;;;;3.94;43.35;100366.66;1727341;80;21046;-64
2022/01/26 13:51:11;;;;;;;74.07;31.23;;;;;;;4.01;43.55;100363.03;1728773;82;21103;-59